createdAt,value
2022-08-19T00:02:18.680Z,33.25
2022-08-19T00:05:22.620Z,32.00
2022-08-19T00:08:25.322Z,32.00
2022-08-19T00:11:28.522Z,33.25
2022-08-19T00:14:34.140Z,32.25
2022-08-19T00:17:36.367Z,33.50
2022-08-19T00:20:44.075Z,31.50
2022-08-19T00:23:46.397Z,34.25
2022-08-19T00:26:48.401Z,30.50
2022-08-19T00:29:54.005Z,34.25
2022-08-19T00:32:56.117Z,30.75
2022-08-19T00:35:58.435Z,32.25
2022-08-19T00:39:01.141Z,32.00
2022-08-19T00:42:03.694Z,32.75
2022-08-19T00:45:15.143Z,34.00
2022-08-19T00:48:18.327Z,34.25
2022-08-19T00:51:20.662Z,33.00
2022-08-19T00:54:28.248Z,32.25
2022-08-19T00:57:40.170Z,32.25
2022-08-19T01:00:42.510Z,34.00
2022-08-19T01:03:57.615Z,34.00
2022-08-19T01:07:01.017Z,34.25
2022-08-19T01:10:06.847Z,31.75
2022-08-19T01:13:14.282Z,33.75
2022-08-19T01:16:18.410Z,36.25
2022-08-19T01:19:29.034Z,34.50
2022-08-19T01:22:40.628Z,33.75
2022-08-19T01:25:50.152Z,34.00
2022-08-19T01:28:57.397Z,33.00
2022-08-19T01:32:02.239Z,31.00
2022-08-19T01:35:05.561Z,33.75
2022-08-19T01:38:11.620Z,33.00
2022-08-19T01:41:14.792Z,35.75
2022-08-19T01:44:19.255Z,33.50
2022-08-19T01:47:21.530Z,34.75
2022-08-19T01:50:23.885Z,37.00
2022-08-19T01:53:26.721Z,33.50
2022-08-19T01:56:36.065Z,34.00
2022-08-19T01:59:38.496Z,33.50
2022-08-19T02:02:40.771Z,36.25
2022-08-19T02:05:46.732Z,33.75
2022-08-19T02:08:50.102Z,32.25
2022-08-19T02:11:54.362Z,33.25
2022-08-19T02:14:56.750Z,35.75
2022-08-19T02:17:59.301Z,35.50
2022-08-19T02:21:01.566Z,33.00
2022-08-19T02:24:04.231Z,33.00
2022-08-19T02:27:06.963Z,34.00
2022-08-19T02:30:13.914Z,38.00
2022-08-19T02:33:17.093Z,34.50
2022-08-19T02:36:20.652Z,36.25
2022-08-19T02:39:23.651Z,35.00
2022-08-19T02:42:25.781Z,36.50
2022-08-19T02:45:28.183Z,37.25
2022-08-19T02:48:30.293Z,33.00
2022-08-19T02:51:39.531Z,34.75
2022-08-19T02:54:41.592Z,34.00
2022-08-19T02:57:43.976Z,35.50
2022-08-19T03:00:51.758Z,37.50
2022-08-19T03:03:54.625Z,37.00
2022-08-19T03:07:00.704Z,36.75
2022-08-19T03:10:05.995Z,38.25
2022-08-19T03:13:08.945Z,36.25
2022-08-19T03:16:12.590Z,35.75
2022-08-19T03:19:17.181Z,36.50
2022-08-19T03:22:19.421Z,36.00
2022-08-19T03:25:22.924Z,36.75
2022-08-19T03:28:25.320Z,33.25
2022-08-19T03:31:43.423Z,36.25
2022-08-19T03:34:48.862Z,34.75
2022-08-19T03:37:51.852Z,36.25
2022-08-19T03:40:54.105Z,37.00
2022-08-19T03:43:56.247Z,37.75
2022-08-19T03:47:00.274Z,36.25
2022-08-19T03:50:03.119Z,38.00
2022-08-19T03:53:05.327Z,35.50
2022-08-19T03:56:10.566Z,38.00
2022-08-19T03:59:17.181Z,34.00
2022-08-19T04:02:19.345Z,38.00
2022-08-19T04:05:21.610Z,36.75
2022-08-19T04:08:29.720Z,37.50
2022-08-19T04:11:43.271Z,37.00
2022-08-19T04:14:46.716Z,36.50
2022-08-19T04:17:48.952Z,33.75
2022-08-19T04:20:50.983Z,35.50
2022-08-19T04:23:54.421Z,38.00
2022-08-19T04:26:57.977Z,34.50
2022-08-19T04:30:00.209Z,34.25
2022-08-19T04:33:02.275Z,32.75
2022-08-19T04:36:04.649Z,35.00
2022-08-19T04:39:10.049Z,34.25
2022-08-19T04:42:31.562Z,36.00
2022-08-19T04:45:39.561Z,34.75
2022-08-19T04:48:49.418Z,35.50
2022-08-19T04:51:55.102Z,38.00
2022-08-19T04:54:57.272Z,36.00
2022-08-19T04:57:59.361Z,37.00
2022-08-19T05:01:02.516Z,36.00
2022-08-19T05:04:06.452Z,34.00
2022-08-19T05:07:10.815Z,34.75
2022-08-19T05:10:13.737Z,33.25
2022-08-19T05:13:18.033Z,36.50
2022-08-19T05:16:21.688Z,31.00
2022-08-19T05:19:42.800Z,34.50
2022-08-19T05:22:46.244Z,34.00
2022-08-19T05:25:48.607Z,33.25
2022-08-19T05:28:54.505Z,34.00
2022-08-19T05:31:57.241Z,34.50
2022-08-19T05:34:59.323Z,33.00
2022-08-19T05:38:01.648Z,33.25
2022-08-19T05:41:11.621Z,30.00
2022-08-19T05:44:15.077Z,31.00
2022-08-19T05:47:17.746Z,31.00
2022-08-19T05:50:20.218Z,32.00
2022-08-19T05:53:22.322Z,32.00
2022-08-19T05:56:25.085Z,30.00
2022-08-19T05:59:27.146Z,30.33
2022-08-19T06:02:31.823Z,31.67
2022-08-19T06:05:34.179Z,27.00
2022-08-19T06:08:52.073Z,30.67
2022-08-19T06:11:59.236Z,29.33
2022-08-19T06:15:08.332Z,30.33
2022-08-19T06:18:14.540Z,30.00
2022-08-19T06:21:16.823Z,29.33
2022-08-19T06:24:23.948Z,29.00
2022-08-19T06:27:26.265Z,32.00
2022-08-19T06:30:28.551Z,31.00
2022-08-19T06:33:31.034Z,30.00
2022-08-19T06:36:36.997Z,26.67
2022-08-19T06:39:41.453Z,20.00
2022-08-19T06:42:45.221Z,28.00
2022-08-19T06:45:57.713Z,29.33
2022-08-19T06:49:01.403Z,29.33
2022-08-19T06:52:05.411Z,29.00
2022-08-19T06:55:07.892Z,29.00
2022-08-19T06:58:10.397Z,31.33
2022-08-19T07:01:12.540Z,28.33
2022-08-19T07:04:17.560Z,25.33
2022-08-19T07:07:22.122Z,27.33
2022-08-19T07:10:24.861Z,25.67
2022-08-19T07:13:27.970Z,24.00
2022-08-19T07:16:30.666Z,27.00
2022-08-19T07:19:33.908Z,28.67
2022-08-19T07:22:36.644Z,27.00
2022-08-19T07:25:39.318Z,21.67
2022-08-19T07:28:51.299Z,26.67
2022-08-19T07:32:00.094Z,25.00
2022-08-19T07:35:04.426Z,25.67
2022-08-19T07:38:06.453Z,26.33
2022-08-19T07:41:12.195Z,25.00
2022-08-19T07:44:15.590Z,29.00
2022-08-19T07:47:48.905Z,22.67
2022-08-19T07:50:41.089Z,24.33
2022-08-19T07:53:45.755Z,23.67
2022-08-19T07:56:47.898Z,22.00
2022-08-19T07:59:50.149Z,26.00
2022-08-19T08:02:55.691Z,22.67
2022-08-19T08:06:17.312Z,26.00
2022-08-19T08:09:25.489Z,25.75
2022-08-19T08:12:34.949Z,23.67
2022-08-19T08:15:42.711Z,23.67
2022-08-19T08:18:50.579Z,25.00
2022-08-19T08:21:57.219Z,26.00
2022-08-19T08:25:04.174Z,26.33
2022-08-19T08:28:11.320Z,23.75
2022-08-19T08:31:13.848Z,26.25
2022-08-19T08:34:16.113Z,25.00
2022-08-19T08:37:18.544Z,26.50
2022-08-19T08:40:45.428Z,22.00
2022-08-19T08:43:52.158Z,26.50
2022-08-19T08:46:58.072Z,25.00
2022-08-19T08:50:07.807Z,24.25
2022-08-19T08:53:12.231Z,24.25
2022-08-19T08:56:16.999Z,24.75
2022-08-19T08:59:35.799Z,25.67
2022-08-19T09:02:39.030Z,27.75
2022-08-19T09:06:06.164Z,25.25
2022-08-19T09:09:33.518Z,25.25
2022-08-19T09:12:43.086Z,25.75
2022-08-19T09:15:51.364Z,23.25
2022-08-19T09:18:56.024Z,24.50
2022-08-19T09:22:01.334Z,24.75
2022-08-19T09:25:05.850Z,23.25
2022-08-19T09:28:12.649Z,23.75
2022-08-19T09:31:28.980Z,22.00
2022-08-19T09:34:31.633Z,20.75
2022-08-19T09:37:41.077Z,24.25
2022-08-19T09:40:43.418Z,24.25
2022-08-19T09:43:47.952Z,21.00
2022-08-19T09:46:51.837Z,25.00
2022-08-19T09:49:53.887Z,26.25
2022-08-19T09:52:57.530Z,22.25
2022-08-19T09:55:59.987Z,22.60
2022-08-19T09:59:04.098Z,22.25
2022-08-19T10:02:10.850Z,22.75
2022-08-19T10:05:31.955Z,24.75
2022-08-19T10:08:37.423Z,25.50
2022-08-19T10:11:54.598Z,24.25
2022-08-19T10:14:57.330Z,26.25
2022-08-19T10:18:00.751Z,26.75
2022-08-19T10:21:11.492Z,25.75
2022-08-19T10:24:14.051Z,25.75
2022-08-19T10:27:16.191Z,26.25
2022-08-19T10:30:20.141Z,24.20
2022-08-19T10:33:38.717Z,26.50
2022-08-19T10:36:56.052Z,28.00
2022-08-19T10:39:58.894Z,24.80
2022-08-19T10:43:01.250Z,26.25
2022-08-19T10:46:03.359Z,25.75
2022-08-19T10:49:06.855Z,23.75
2022-08-19T10:52:32.515Z,25.40
2022-08-19T10:55:54.240Z,23.20
2022-08-19T10:58:57.736Z,21.60
2022-08-19T11:02:01.877Z,21.80
2022-08-19T11:05:05.174Z,21.80
2022-08-19T11:08:23.370Z,23.60
2022-08-19T11:11:26.243Z,22.75
2022-08-19T11:14:32.111Z,22.40
2022-08-19T11:17:37.190Z,24.60
2022-08-19T11:20:39.857Z,21.20
2022-08-19T11:23:42.492Z,20.40
2022-08-19T11:26:45.734Z,19.00
2022-08-19T11:29:48.546Z,20.40
2022-08-19T11:32:50.909Z,24.00
2022-08-19T11:35:54.545Z,23.80
2022-08-19T11:38:57.221Z,21.00
2022-08-19T11:42:00.182Z,21.20
2022-08-19T11:45:04.119Z,18.80
2022-08-19T11:48:06.197Z,20.00
2022-08-19T11:51:12.483Z,18.60
2022-08-19T11:54:17.169Z,18.60
2022-08-19T11:57:20.759Z,22.20
2022-08-19T12:00:23.582Z,21.00
2022-08-19T12:03:26.362Z,18.00
2022-08-19T12:06:31.090Z,17.40
2022-08-19T12:09:35.482Z,19.00
2022-08-19T12:12:41.437Z,19.80
2022-08-19T12:15:44.022Z,21.80
2022-08-19T12:18:47.435Z,19.80
2022-08-19T12:21:50.641Z,21.40
2022-08-19T12:24:54.744Z,20.80
2022-08-19T12:27:57.924Z,19.20
2022-08-19T12:31:00.608Z,21.00
2022-08-19T12:34:09.368Z,18.60
2022-08-19T12:37:12.010Z,18.80
2022-08-19T12:40:16.499Z,19.80
2022-08-19T12:43:21.330Z,18.80
2022-08-19T12:46:26.076Z,17.40
2022-08-19T12:49:52.386Z,19.00
2022-08-19T12:52:59.110Z,20.80
2022-08-19T12:56:01.777Z,18.00
2022-08-19T12:59:05.790Z,18.40
2022-08-19T13:02:09.090Z,17.40
2022-08-19T13:05:15.265Z,19.00
2022-08-19T13:08:18.179Z,15.80
2022-08-19T13:11:25.304Z,17.40
2022-08-19T13:14:27.601Z,17.40
2022-08-19T13:17:30.116Z,19.20
2022-08-19T13:20:33.634Z,21.40
2022-08-19T13:23:36.879Z,19.00
2022-08-19T13:26:39.335Z,18.00
2022-08-19T13:30:01.359Z,19.60
2022-08-19T13:33:12.831Z,19.80
2022-08-19T13:36:18.438Z,16.60
2022-08-19T13:39:21.568Z,16.80
2022-08-19T13:42:26.744Z,17.40
2022-08-19T13:45:32.190Z,18.60
2022-08-19T13:48:35.238Z,17.80
2022-08-19T13:51:40.798Z,17.00
2022-08-19T13:54:45.126Z,18.00
2022-08-19T13:57:47.467Z,15.40
2022-08-19T14:00:50.956Z,17.80
2022-08-19T14:03:53.979Z,16.40
2022-08-19T14:06:56.666Z,16.20
2022-08-19T14:09:59.016Z,17.40
2022-08-19T14:13:03.667Z,16.20
2022-08-19T14:16:11.583Z,17.40
2022-08-19T14:19:14.441Z,17.80
2022-08-19T14:22:22.042Z,17.60
2022-08-19T14:25:27.611Z,18.25
2022-08-19T14:28:31.181Z,15.20
2022-08-19T14:31:33.693Z,20.60
2022-08-19T14:34:38.291Z,18.80
2022-08-19T14:37:45.797Z,16.20
2022-08-19T14:40:49.965Z,17.00
2022-08-19T14:43:54.183Z,17.20
2022-08-19T14:46:56.497Z,16.40
2022-08-19T14:50:00.314Z,18.80
2022-08-19T14:53:12.662Z,17.40
2022-08-19T14:56:17.565Z,17.40
2022-08-19T14:59:19.778Z,18.00
2022-08-19T15:02:34.448Z,17.40
2022-08-19T15:05:37.629Z,17.00
2022-08-19T15:08:45.940Z,17.60
2022-08-19T15:11:49.944Z,17.20
2022-08-19T15:14:53.656Z,16.80
2022-08-19T15:18:03.310Z,16.80
2022-08-19T15:21:06.572Z,19.60
2022-08-19T15:24:10.386Z,17.80
2022-08-19T15:27:13.871Z,16.60
2022-08-19T15:30:22.241Z,13.20
2022-08-19T15:33:25.024Z,16.80
2022-08-19T15:36:28.396Z,17.25
2022-08-19T15:39:31.555Z,17.75
2022-08-19T15:42:34.276Z,16.20
2022-08-19T15:45:36.707Z,16.00
2022-08-19T15:48:39.063Z,13.60
2022-08-19T15:51:43.677Z,14.20
2022-08-19T15:54:45.891Z,18.00
2022-08-19T15:58:06.861Z,16.40
2022-08-19T16:01:28.495Z,16.40
2022-08-19T16:04:49.751Z,15.20
2022-08-19T16:07:52.096Z,14.00
2022-08-19T16:10:55.184Z,16.50
2022-08-19T16:13:59.167Z,16.50
2022-08-19T16:17:02.166Z,14.50
2022-08-19T16:20:07.271Z,16.00
2022-08-19T16:23:10.271Z,17.50
2022-08-19T16:26:13.460Z,16.75
2022-08-19T16:29:33.465Z,13.75
2022-08-19T16:32:37.183Z,15.25
2022-08-19T16:35:39.622Z,15.25
2022-08-19T16:38:41.826Z,17.25
2022-08-19T16:41:46.020Z,16.75
2022-08-19T16:44:48.226Z,13.75
2022-08-19T16:47:50.850Z,15.75
2022-08-19T16:50:53.403Z,15.00
2022-08-19T16:53:56.102Z,15.25
2022-08-19T16:56:59.790Z,15.50
2022-08-19T17:00:09.722Z,13.00
2022-08-19T17:03:15.114Z,14.75
2022-08-19T17:06:21.093Z,14.00
2022-08-19T17:09:26.003Z,18.25
2022-08-19T17:12:31.919Z,15.00
2022-08-19T17:15:34.961Z,16.50
2022-08-19T17:18:37.487Z,13.50
2022-08-19T17:21:40.773Z,14.50
2022-08-19T17:24:43.144Z,16.00
2022-08-19T17:27:45.514Z,13.00
2022-08-19T17:30:48.285Z,10.25
2022-08-19T17:33:51.360Z,12.75
2022-08-19T17:36:56.767Z,13.00
2022-08-19T17:39:59.028Z,15.50
2022-08-19T17:43:02.796Z,14.00
2022-08-19T17:46:05.721Z,14.75
2022-08-19T17:49:08.123Z,15.00
2022-08-19T17:52:11.163Z,13.00
2022-08-19T17:55:13.967Z,12.67
2022-08-19T17:58:16.665Z,13.00
2022-08-19T18:01:22.024Z,16.33
2022-08-19T18:04:27.200Z,16.67
2022-08-19T18:07:30.466Z,15.67
2022-08-19T18:10:34.994Z,14.00
2022-08-19T18:13:38.342Z,16.33
2022-08-19T18:16:40.501Z,15.00
2022-08-19T18:19:44.460Z,18.67
2022-08-19T18:22:48.711Z,17.67
2022-08-19T18:25:51.102Z,17.00
2022-08-19T18:28:54.159Z,14.00
2022-08-19T18:31:57.849Z,18.67
2022-08-19T18:35:02.062Z,14.00
2022-08-19T18:38:27.455Z,16.67
2022-08-19T18:41:48.429Z,13.00
2022-08-19T18:45:09.688Z,17.67
2022-08-19T18:48:30.281Z,15.33
2022-08-19T18:51:33.290Z,17.00
2022-08-19T18:54:36.893Z,18.00
2022-08-19T18:57:39.230Z,16.00
2022-08-19T19:00:41.962Z,12.00
2022-08-19T19:03:48.080Z,17.00
2022-08-19T19:06:50.398Z,17.33
2022-08-19T19:09:52.734Z,16.00
2022-08-19T19:12:54.958Z,15.33
2022-08-19T19:15:57.500Z,14.00
2022-08-19T19:18:59.947Z,17.00
2022-08-19T19:22:03.607Z,18.33
2022-08-19T19:25:06.617Z,16.00
2022-08-19T19:28:09.973Z,16.00
2022-08-19T19:31:22.692Z,14.00
2022-08-19T19:34:29.483Z,18.67
2022-08-19T19:37:32.997Z,15.00
2022-08-19T19:40:35.406Z,13.00
2022-08-19T19:43:40.882Z,17.33
2022-08-19T19:46:43.983Z,17.00
2022-08-19T19:50:12.770Z,16.00
2022-08-19T19:53:10.201Z,17.33
2022-08-19T19:56:13.259Z,18.67
2022-08-19T19:59:18.673Z,13.67
2022-08-19T20:02:22.129Z,17.33
2022-08-19T20:05:25.746Z,13.67
2022-08-19T20:08:46.949Z,16.33
2022-08-19T20:11:56.064Z,18.33
2022-08-19T20:15:02.133Z,19.00
2022-08-19T20:18:05.934Z,16.33
2022-08-19T20:21:12.467Z,16.00
2022-08-19T20:24:20.937Z,15.67
2022-08-19T20:27:27.565Z,15.33
2022-08-19T20:30:56.992Z,13.33
2022-08-19T20:34:25.729Z,14.67
2022-08-19T20:37:36.748Z,15.33
2022-08-19T20:41:06.330Z,16.33
2022-08-19T20:44:13.647Z,16.00
2022-08-19T20:47:16.103Z,15.67
2022-08-19T20:50:18.899Z,16.67
2022-08-19T20:53:27.235Z,17.33
2022-08-19T20:56:29.757Z,17.67
2022-08-19T20:59:37.213Z,15.67
2022-08-19T21:02:42.467Z,15.33
2022-08-19T21:05:47.946Z,16.67
2022-08-19T21:08:51.079Z,15.00
2022-08-19T21:11:54.555Z,13.33
2022-08-19T21:14:56.892Z,17.00
2022-08-19T21:18:01.893Z,17.00
2022-08-19T21:21:04.577Z,17.33
2022-08-19T21:24:06.942Z,16.67
2022-08-19T21:27:09.343Z,16.00
2022-08-19T21:30:12.324Z,16.33
2022-08-19T21:33:15.207Z,15.00
2022-08-19T21:36:18.545Z,16.33
2022-08-19T21:39:20.973Z,17.00
2022-08-19T21:42:24.081Z,17.33
2022-08-19T21:45:36.239Z,14.67
2022-08-19T21:48:38.391Z,16.00
2022-08-19T21:51:40.914Z,17.00
2022-08-19T21:54:43.061Z,15.33
2022-08-19T21:57:45.533Z,15.67
2022-08-19T22:00:47.769Z,14.67
2022-08-19T22:03:50.335Z,14.00
2022-08-19T22:06:52.525Z,17.67
2022-08-19T22:09:55.040Z,18.33
2022-08-19T22:12:57.988Z,16.00
2022-08-19T22:16:00.457Z,14.67
2022-08-19T22:19:02.748Z,17.33
2022-08-19T22:22:05.159Z,15.67
2022-08-19T22:25:13.498Z,15.00
2022-08-19T22:29:01.248Z,16.00
2022-08-19T22:32:26.231Z,15.67
2022-08-19T22:35:31.357Z,16.00
2022-08-19T22:38:34.527Z,13.33
2022-08-19T22:41:37.643Z,15.33
2022-08-19T22:44:39.769Z,15.67
2022-08-19T22:47:43.198Z,15.33
2022-08-19T22:51:06.827Z,20.33
2022-08-19T22:54:09.483Z,19.00
2022-08-19T22:57:11.719Z,19.00
2022-08-19T23:00:14.961Z,19.67
2022-08-19T23:03:17.138Z,17.00
2022-08-19T23:06:19.589Z,18.33
2022-08-19T23:09:23.324Z,20.00
2022-08-19T23:12:31.473Z,16.00
2022-08-19T23:15:35.159Z,18.00
2022-08-19T23:18:37.502Z,19.33
2022-08-19T23:21:41.903Z,17.67
2022-08-19T23:24:44.377Z,18.00
2022-08-19T23:28:05.227Z,16.67
2022-08-19T23:31:08.374Z,18.00
2022-08-19T23:34:11.254Z,16.00
2022-08-19T23:37:13.819Z,17.00
2022-08-19T23:40:17.270Z,16.00
2022-08-19T23:43:25.039Z,18.00
2022-08-19T23:46:28.482Z,20.67
2022-08-19T23:49:31.421Z,15.00
2022-08-19T23:52:35.147Z,18.33
2022-08-19T23:55:40.415Z,16.33
2022-08-19T23:58:42.531Z,16.00
